sensor_id;sensor_type;location;lat;lon;timestamp;pressure;altitude;pressure_sealevel;temperature;humidity
7182;BME280;3632;42.724;23.298;2023-03-01T00:00:54;95870.84;;;8.98;94.99
7182;BME280;3632;42.724;23.298;2023-03-01T00:03:21;95801.84;;;8.36;94.53
7182;BME280;3632;42.724;23.298;2023-03-01T00:05:48;95779.47;;;7.86;95.28
7182;BME280;3632;42.724;23.298;2023-03-01T00:08:15;95229.59;;;4.93;94.68
7182;BME280;3632;42.724;23.298;2023-03-01T00:10:43;95870.94;;;8.96;94.79
7182;BME280;3632;42.724;23.298;2023-03-01T00:13:10;95877.47;;;8.74;94.90
7182;BME280;3632;42.724;23.298;2023-03-01T00:15:38;95849.56;;;8.86;94.84
7182;BME280;3632;42.724;23.298;2023-03-01T00:18:06;95853.53;;;8.90;94.82
7182;BME280;3632;42.724;23.298;2023-03-01T00:20:33;95846.38;;;8.83;94.90
7182;BME280;3632;42.724;23.298;2023-03-01T00:23:01;95855.03;;;8.66;95.81
7182;BME280;3632;42.724;23.298;2023-03-01T00:25:27;95849.16;;;8.65;95.87
7182;BME280;3632;42.724;23.298;2023-03-01T00:27:56;95793.78;;;8.15;96.38
7182;BME280;3632;42.724;23.298;2023-03-01T00:30:23;95834.34;;;8.31;96.94
7182;BME280;3632;42.724;23.298;2023-03-01T00:32:50;95661.91;;;7.30;97.02
7182;BME280;3632;42.724;23.298;2023-03-01T00:35:16;95831.59;;;8.48;96.82
7182;BME280;3632;42.724;23.298;2023-03-01T00:37:43;95825.31;;;8.54;96.45
7182;BME280;3632;42.724;23.298;2023-03-01T00:40:11;95824.69;;;8.50;95.43
7182;BME280;3632;42.724;23.298;2023-03-01T00:42:41;95831.22;;;8.54;95.88
7182;BME280;3632;42.724;23.298;2023-03-01T00:45:10;95824.19;;;8.58;95.56
7182;BME280;3632;42.724;23.298;2023-03-01T00:47:38;95725.47;;;7.70;96.33
7182;BME280;3632;42.724;23.298;2023-03-01T00:50:08;95470.38;;;5.69;97.96
7182;BME280;3632;42.724;23.298;2023-03-01T00:52:36;95843.03;;;8.13;98.81
7182;BME280;3632;42.724;23.298;2023-03-01T00:55:05;95764.81;;;7.63;97.55
7182;BME280;3632;42.724;23.298;2023-03-01T00:57:32;95821.44;;;8.34;96.55
7182;BME280;3632;42.724;23.298;2023-03-01T01:00:00;95822.16;;;8.36;97.02
7182;BME280;3632;42.724;23.298;2023-03-01T01:02:29;95820.25;;;8.25;96.97
7182;BME280;3632;42.724;23.298;2023-03-01T01:04:56;95848.91;;;7.99;98.63
7182;BME280;3632;42.724;23.298;2023-03-01T01:07:23;95832.88;;;8.13;98.62
7182;BME280;3632;42.724;23.298;2023-03-01T01:09:50;95475.97;;;5.90;98.28
7182;BME280;3632;42.724;23.298;2023-03-01T01:12:17;95686.53;;;7.14;98.30
7182;BME280;3632;42.724;23.298;2023-03-01T01:14:44;95832.59;;;8.17;97.80
7182;BME280;3632;42.724;23.298;2023-03-01T01:17:11;95823.94;;;7.49;97.90
7182;BME280;3632;42.724;23.298;2023-03-01T01:19:39;95631.63;;;6.27;97.70
7182;BME280;3632;42.724;23.298;2023-03-01T01:22:06;95880.91;;;7.88;97.98
7182;BME280;3632;42.724;23.298;2023-03-01T01:24:33;95828.81;;;8.10;97.77
7182;BME280;3632;42.724;23.298;2023-03-01T01:27:00;95506.94;;;6.09;96.78
7182;BME280;3632;42.724;23.298;2023-03-01T01:29:27;95818.38;;;8.29;95.58
7182;BME280;3632;42.724;23.298;2023-03-01T01:31:54;95824.19;;;8.31;95.43
7182;BME280;3632;42.724;23.298;2023-03-01T02:04:37;95718.66;;;7.14;95.37
7182;BME280;3632;42.724;23.298;2023-03-01T02:07:09;95795.50;;;7.72;95.65
7182;BME280;3632;42.724;23.298;2023-03-01T02:09:38;95832.59;;;7.89;95.26
7182;BME280;3632;42.724;23.298;2023-03-01T02:12:06;95816.91;;;7.82;95.43
7182;BME280;3632;42.724;23.298;2023-03-01T02:14:33;95651.25;;;6.67;96.62
7182;BME280;3632;42.724;23.298;2023-03-01T02:17:00;95173.50;;;3.83;95.36
7182;BME280;3632;42.724;23.298;2023-03-01T02:19:41;95739.72;;;7.58;95.10
7182;BME280;3632;42.724;23.298;2023-03-01T02:22:18;95801.50;;;8.00;94.21
7182;BME280;3632;42.724;23.298;2023-03-01T02:24:57;95176.78;;;4.31;93.55
7182;BME280;3632;42.724;23.298;2023-03-01T02:27:31;95796.69;;;8.09;94.63
7182;BME280;3632;42.724;23.298;2023-03-01T02:30:04;95430.13;;;5.21;93.63
7182;BME280;3632;42.724;23.298;2023-03-01T02:35:54;95709.53;;;7.54;94.48
7182;BME280;3632;42.724;23.298;2023-03-01T02:38:23;95818.91;;;8.06;95.38
7182;BME280;3632;42.724;23.298;2023-03-01T02:40:51;95819.44;;;8.11;96.03
7182;BME280;3632;42.724;23.298;2023-03-01T02:43:55;95815.72;;;8.16;95.57
7182;BME280;3632;42.724;23.298;2023-03-01T02:46:25;95817.72;;;8.11;96.43
7182;BME280;3632;42.724;23.298;2023-03-01T02:48:53;95810.38;;;8.21;95.61
7182;BME280;3632;42.724;23.298;2023-03-01T02:51:26;95437.00;;;5.78;94.80
7182;BME280;3632;42.724;23.298;2023-03-01T03:00:42;95814.16;;;8.28;94.52
7182;BME280;3632;42.724;23.298;2023-03-01T03:03:13;95738.06;;;7.86;94.26
7182;BME280;3632;42.724;23.298;2023-03-01T03:05:40;95917.28;;;8.16;94.43
7182;BME280;3632;42.724;23.298;2023-03-01T03:08:07;95753.81;;;7.91;94.07
7182;BME280;3632;42.724;23.298;2023-03-01T03:10:36;95816.44;;;8.33;94.61
7182;BME280;3632;42.724;23.298;2023-03-01T03:13:06;95811.84;;;8.39;93.11
7182;BME280;3632;42.724;23.298;2023-03-01T03:15:34;95831.59;;;8.34;93.14
7182;BME280;3632;42.724;23.298;2023-03-01T03:18:03;95840.28;;;8.16;93.53
7182;BME280;3632;42.724;23.298;2023-03-01T03:20:32;95821.44;;;8.34;92.83
7182;BME280;3632;42.724;23.298;2023-03-01T03:22:59;95863.44;;;8.40;92.42
7182;BME280;3632;42.724;23.298;2023-03-01T03:25:28;95818.34;;;8.43;91.83
7182;BME280;3632;42.724;23.298;2023-03-01T03:27:55;95822.72;;;8.13;92.40
7182;BME280;3632;42.724;23.298;2023-03-01T03:30:24;95827.06;;;8.25;91.89
7182;BME280;3632;42.724;23.298;2023-03-01T03:32:52;95797.53;;;7.67;92.11
7182;BME280;3632;42.724;23.298;2023-03-01T03:35:20;95839.84;;;8.09;91.45
7182;BME280;3632;42.724;23.298;2023-03-01T03:37:49;95701.00;;;7.26;93.52
7182;BME280;3632;42.724;23.298;2023-03-01T03:40:31;95834.84;;;8.22;92.36
7182;BME280;3632;42.724;23.298;2023-03-01T03:42:58;95220.63;;;4.44;91.27
7182;BME280;3632;42.724;23.298;2023-03-01T03:45:24;95849.19;;;8.23;91.95
7182;BME280;3632;42.724;23.298;2023-03-01T03:47:51;95835.69;;;8.22;92.11
7182;BME280;3632;42.724;23.298;2023-03-01T03:50:18;95339.88;;;4.93;91.78
7182;BME280;3632;42.724;23.298;2023-03-01T03:52:45;95758.19;;;7.46;91.63
7182;BME280;3632;42.724;23.298;2023-03-01T03:55:13;95464.31;;;5.87;91.40
7182;BME280;3632;42.724;23.298;2023-03-01T03:57:45;95840.09;;;8.19;92.21
7182;BME280;3632;42.724;23.298;2023-03-01T04:00:19;95706.91;;;7.27;93.03
7182;BME280;3632;42.724;23.298;2023-03-01T04:02:47;95833.41;;;8.18;93.39
7182;BME280;3632;42.724;23.298;2023-03-01T04:05:16;95842.47;;;8.08;92.41
7182;BME280;3632;42.724;23.298;2023-03-01T04:07:43;95828.50;;;8.15;92.57
7182;BME280;3632;42.724;23.298;2023-03-01T04:10:13;95836.84;;;8.17;92.51
7182;BME280;3632;42.724;23.298;2023-03-01T04:12:41;95843.47;;;8.19;91.67
7182;BME280;3632;42.724;23.298;2023-03-01T04:15:09;95852.44;;;8.25;91.56
7182;BME280;3632;42.724;23.298;2023-03-01T04:17:39;95785.28;;;7.74;92.05
7182;BME280;3632;42.724;23.298;2023-03-01T04:20:08;95824.06;;;7.90;92.08
7182;BME280;3632;42.724;23.298;2023-03-01T04:22:36;95878.28;;;8.03;92.97
7182;BME280;3632;42.724;23.298;2023-03-01T04:25:04;95736.44;;;7.42;92.12
7182;BME280;3632;42.724;23.298;2023-03-01T04:27:33;95704.19;;;7.30;93.01
7182;BME280;3632;42.724;23.298;2023-03-01T04:30:00;95908.34;;;7.51;92.80
7182;BME280;3632;42.724;23.298;2023-03-01T04:32:27;95753.28;;;7.43;93.37
7182;BME280;3632;42.724;23.298;2023-03-01T04:34:53;95841.38;;;8.12;93.24
7182;BME280;3632;42.724;23.298;2023-03-01T04:37:20;95607.81;;;6.00;92.50
7182;BME280;3632;42.724;23.298;2023-03-01T04:39:47;95821.25;;;7.95;92.79
7182;BME280;3632;42.724;23.298;2023-03-01T04:42:14;95734.22;;;7.22;92.28
7182;BME280;3632;42.724;23.298;2023-03-01T04:44:43;95832.22;;;7.81;92.29
7182;BME280;3632;42.724;23.298;2023-03-01T04:47:10;95274.09;;;4.35;91.78
7182;BME280;3632;42.724;23.298;2023-03-01T04:49:37;95913.00;;;7.29;91.67
7182;BME280;3632;42.724;23.298;2023-03-01T04:52:04;95831.75;;;7.60;90.33
7182;BME280;3632;42.724;23.298;2023-03-01T04:54:32;95809.25;;;7.40;91.71
7182;BME280;3632;42.724;23.298;2023-03-01T04:57:00;95762.06;;;6.94;91.54
7182;BME280;3632;42.724;23.298;2023-03-01T04:59:26;95762.94;;;6.63;92.65
7182;BME280;3632;42.724;23.298;2023-03-01T05:01:56;95828.28;;;7.47;91.96
7182;BME280;3632;42.724;23.298;2023-03-01T05:04:23;95359.47;;;4.42;93.60
7182;BME280;3632;42.724;23.298;2023-03-01T05:06:50;95849.44;;;7.32;93.33
7182;BME280;3632;42.724;23.298;2023-03-01T05:09:19;95774.16;;;6.43;93.21
7182;BME280;3632;42.724;23.298;2023-03-01T05:11:46;95835.22;;;7.59;92.27
7182;BME280;3632;42.724;23.298;2023-03-01T05:14:13;95828.84;;;7.52;92.85
7182;BME280;3632;42.724;23.298;2023-03-01T05:16:40;95832.81;;;7.56;93.11
7182;BME280;3632;42.724;23.298;2023-03-01T05:19:08;95660.63;;;6.51;93.20
7182;BME280;3632;42.724;23.298;2023-03-01T05:21:41;95840.28;;;7.59;93.44
7182;BME280;3632;42.724;23.298;2023-03-01T05:24:21;95866.16;;;7.50;94.33
7182;BME280;3632;42.724;23.298;2023-03-01T05:26:48;95837.53;;;7.48;95.39
7182;BME280;3632;42.724;23.298;2023-03-01T05:29:17;95760.97;;;6.98;94.97
7182;BME280;3632;42.724;23.298;2023-03-01T05:31:50;95834.53;;;7.56;94.47
7182;BME280;3632;42.724;23.298;2023-03-01T05:34:19;95840.34;;;7.58;94.12
7182;BME280;3632;42.724;23.298;2023-03-01T05:36:48;95835.09;;;7.47;95.78
7182;BME280;3632;42.724;23.298;2023-03-01T05:39:16;95831.19;;;7.41;95.58
7182;BME280;3632;42.724;23.298;2023-03-01T05:41:43;95836.06;;;7.44;96.03
7182;BME280;3632;42.724;23.298;2023-03-01T05:44:10;95764.09;;;7.03;96.14
7182;BME280;3632;42.724;23.298;2023-03-01T05:46:37;95847.88;;;7.59;95.93
7182;BME280;3632;42.724;23.298;2023-03-01T05:49:04;95849.16;;;7.66;95.39
7182;BME280;3632;42.724;23.298;2023-03-01T05:51:32;95671.00;;;6.47;94.93
7182;BME280;3632;42.724;23.298;2023-03-01T05:54:00;95849.88;;;7.68;94.80
7182;BME280;3632;42.724;23.298;2023-03-01T05:56:26;95856.81;;;7.80;95.08
7182;BME280;3632;42.724;23.298;2023-03-01T05:58:54;95851.88;;;7.77;93.49
7182;BME280;3632;42.724;23.298;2023-03-01T06:01:21;95930.91;;;7.26;93.83
7182;BME280;3632;42.724;23.298;2023-03-01T06:03:48;95865.94;;;7.83;94.39
7182;BME280;3632;42.724;23.298;2023-03-01T06:06:14;95457.19;;;4.72;93.97
7182;BME280;3632;42.724;23.298;2023-03-01T06:08:42;95972.41;;;7.70;94.71
7182;BME280;3632;42.724;23.298;2023-03-01T06:11:09;95798.81;;;7.30;94.73
7182;BME280;3632;42.724;23.298;2023-03-01T06:13:36;95876.03;;;7.85;94.38
7182;BME280;3632;42.724;23.298;2023-03-01T06:16:04;95873.66;;;7.96;94.03
7182;BME280;3632;42.724;23.298;2023-03-01T06:18:31;95875.75;;;7.89;94.93
7182;BME280;3632;42.724;23.298;2023-03-01T06:20:58;95895.34;;;8.01;93.18
7182;BME280;3632;42.724;23.298;2023-03-01T06:23:25;95783.84;;;7.26;93.53
7182;BME280;3632;42.724;23.298;2023-03-01T06:25:53;95874.78;;;8.06;93.83
7182;BME280;3632;42.724;23.298;2023-03-01T06:28:20;95596.72;;;5.39;93.70
7182;BME280;3632;42.724;23.298;2023-03-01T06:30:47;95564.84;;;5.68;93.75
7182;BME280;3632;42.724;23.298;2023-03-01T06:33:14;95882.19;;;8.09;93.82
7182;BME280;3632;42.724;23.298;2023-03-01T06:35:40;95684.50;;;6.91;93.12
7182;BME280;3632;42.724;23.298;2023-03-01T06:38:07;95496.50;;;5.09;92.23
7182;BME280;3632;42.724;23.298;2023-03-01T06:40:34;95744.16;;;6.97;95.67
7182;BME280;3632;42.724;23.298;2023-03-01T06:43:02;95570.63;;;5.07;94.56
7182;BME280;3632;42.724;23.298;2023-03-01T06:45:29;95850.63;;;7.85;93.82
7182;BME280;3632;42.724;23.298;2023-03-01T06:48:01;95819.16;;;7.59;94.14
7182;BME280;3632;42.724;23.298;2023-03-01T06:50:29;95872.03;;;7.95;94.44
7182;BME280;3632;42.724;23.298;2023-03-01T06:52:56;95872.22;;;7.92;93.90
7182;BME280;3632;42.724;23.298;2023-03-01T06:55:23;95877.56;;;7.87;93.66
7182;BME280;3632;42.724;23.298;2023-03-01T06:57:54;95874.50;;;8.10;93.01
7182;BME280;3632;42.724;23.298;2023-03-01T07:00:23;95876.03;;;8.13;92.71
7182;BME280;3632;42.724;23.298;2023-03-01T07:02:50;95886.97;;;8.27;91.74
7182;BME280;3632;42.724;23.298;2023-03-01T07:05:17;95884.66;;;8.10;92.17
7182;BME280;3632;42.724;23.298;2023-03-01T07:07:44;95885.47;;;8.25;91.93
7182;BME280;3632;42.724;23.298;2023-03-01T07:10:11;95887.63;;;8.17;90.68
7182;BME280;3632;42.724;23.298;2023-03-01T07:12:38;95883.53;;;8.00;91.87
7182;BME280;3632;42.724;23.298;2023-03-01T07:15:08;95878.19;;;7.76;93.15
7182;BME280;3632;42.724;23.298;2023-03-01T07:17:37;95885.22;;;7.71;94.03
7182;BME280;3632;42.724;23.298;2023-03-01T07:20:04;95898.56;;;7.45;95.11
7182;BME280;3632;42.724;23.298;2023-03-01T07:22:32;95705.84;;;6.12;95.67
7182;BME280;3632;42.724;23.298;2023-03-01T07:24:59;95798.66;;;7.33;95.71
7182;BME280;3632;42.724;23.298;2023-03-01T07:27:26;95540.66;;;5.33;94.43
7182;BME280;3632;42.724;23.298;2023-03-01T07:29:53;96023.50;;;7.94;94.64
7182;BME280;3632;42.724;23.298;2023-03-01T07:32:19;95868.25;;;8.30;92.86
7182;BME280;3632;42.724;23.298;2023-03-01T07:34:48;95824.25;;;7.87;91.92
7182;BME280;3632;42.724;23.298;2023-03-01T07:37:14;95879.94;;;8.47;90.39
7182;BME280;3632;42.724;23.298;2023-03-01T07:39:41;95563.34;;;5.95;92.49
7182;BME280;3632;42.724;23.298;2023-03-01T07:42:08;95878.09;;;8.20;93.62
7182;BME280;3632;42.724;23.298;2023-03-01T07:44:35;95754.63;;;7.34;92.12
7182;BME280;3632;42.724;23.298;2023-03-01T07:47:02;95861.50;;;8.15;92.25
7182;BME280;3632;42.724;23.298;2023-03-01T07:49:29;95866.06;;;8.10;92.62
7182;BME280;3632;42.724;23.298;2023-03-01T07:51:57;95419.41;;;5.01;93.05
7182;BME280;3632;42.724;23.298;2023-03-01T07:54:24;95862.59;;;8.25;92.14
7182;BME280;3632;42.724;23.298;2023-03-01T07:56:51;95598.97;;;6.66;89.59
7182;BME280;3632;42.724;23.298;2023-03-01T07:59:20;95708.38;;;7.59;88.92
7182;BME280;3632;42.724;23.298;2023-03-01T08:01:46;95857.69;;;8.64;87.86
7182;BME280;3632;42.724;23.298;2023-03-01T08:04:13;95755.59;;;8.17;87.52
7182;BME280;3632;42.724;23.298;2023-03-01T08:06:40;95595.19;;;6.73;85.64
7182;BME280;3632;42.724;23.298;2023-03-01T08:09:09;95850.88;;;8.65;85.02
7182;BME280;3632;42.724;23.298;2023-03-01T08:11:36;95852.59;;;9.18;84.09
7182;BME280;3632;42.724;23.298;2023-03-01T08:14:02;95828.69;;;9.08;84.51
7182;BME280;3632;42.724;23.298;2023-03-01T08:16:29;95841.38;;;8.54;83.19
7182;BME280;3632;42.724;23.298;2023-03-01T08:18:57;95779.13;;;9.01;82.54
7182;BME280;3632;42.724;23.298;2023-03-01T08:21:26;95848.19;;;9.47;82.39
7182;BME280;3632;42.724;23.298;2023-03-01T08:23:53;95486.00;;;7.19;81.49
7182;BME280;3632;42.724;23.298;2023-03-01T08:26:21;95844.53;;;9.51;81.64
7182;BME280;3632;42.724;23.298;2023-03-01T08:28:49;95825.72;;;9.53;80.98
7182;BME280;3632;42.724;23.298;2023-03-01T08:31:18;95790.06;;;9.28;80.37
7182;BME280;3632;42.724;23.298;2023-03-01T08:33:46;95842.63;;;9.42;81.04
7182;BME280;3632;42.724;23.298;2023-03-01T08:36:20;95680.09;;;8.47;81.47
7182;BME280;3632;42.724;23.298;2023-03-01T08:38:48;95822.31;;;9.28;81.97
7182;BME280;3632;42.724;23.298;2023-03-01T08:41:15;95843.84;;;9.49;82.12
7182;BME280;3632;42.724;23.298;2023-03-01T08:43:43;95841.44;;;9.21;82.81
7182;BME280;3632;42.724;23.298;2023-03-01T08:46:11;95778.69;;;8.82;83.08
7182;BME280;3632;42.724;23.298;2023-03-01T08:48:38;95835.38;;;9.09;82.67
7182;BME280;3632;42.724;23.298;2023-03-01T08:51:10;95839.41;;;9.26;83.76
7182;BME280;3632;42.724;23.298;2023-03-01T08:53:38;95842.44;;;9.18;81.95
7182;BME280;3632;42.724;23.298;2023-03-01T08:56:05;95814.31;;;8.94;83.26
7182;BME280;3632;42.724;23.298;2023-03-01T08:58:32;95842.22;;;9.21;82.45
7182;BME280;3632;42.724;23.298;2023-03-01T09:01:01;95844.06;;;9.19;84.02
7182;BME280;3632;42.724;23.298;2023-03-01T09:03:29;95844.09;;;9.32;83.82
7182;BME280;3632;42.724;23.298;2023-03-01T09:06:00;95749.53;;;9.00;83.11
7182;BME280;3632;42.724;23.298;2023-03-01T09:08:27;95841.31;;;9.61;82.73
7182;BME280;3632;42.724;23.298;2023-03-01T09:10:54;95833.69;;;9.87;80.76
7182;BME280;3632;42.724;23.298;2023-03-01T09:13:22;95834.59;;;9.86;78.79
7182;BME280;3632;42.724;23.298;2023-03-01T09:15:50;95826.03;;;9.87;76.32
7182;BME280;3632;42.724;23.298;2023-03-01T09:18:18;95839.06;;;9.95;76.33
7182;BME280;3632;42.724;23.298;2023-03-01T09:20:45;95666.59;;;8.59;77.01
7182;BME280;3632;42.724;23.298;2023-03-01T09:23:12;95837.34;;;9.70;77.85
7182;BME280;3632;42.724;23.298;2023-03-01T09:25:39;95867.88;;;9.70;76.20
7182;BME280;3632;42.724;23.298;2023-03-01T09:28:05;95826.94;;;9.73;76.09
7182;BME280;3632;42.724;23.298;2023-03-01T09:30:32;95517.59;;;7.13;76.68
7182;BME280;3632;42.724;23.298;2023-03-01T09:32:59;95878.13;;;9.56;77.46
7182;BME280;3632;42.724;23.298;2023-03-01T09:35:27;95840.16;;;9.40;78.82
7182;BME280;3632;42.724;23.298;2023-03-01T09:37:54;95723.56;;;8.69;78.99
7182;BME280;3632;42.724;23.298;2023-03-01T09:40:23;95290.31;;;6.21;79.35
7182;BME280;3632;42.724;23.298;2023-03-01T09:42:53;95749.88;;;9.21;79.74
7182;BME280;3632;42.724;23.298;2023-03-01T09:45:27;95726.47;;;8.37;79.44
7182;BME280;3632;42.724;23.298;2023-03-01T09:47:55;95820.84;;;9.63;77.75
7182;BME280;3632;42.724;23.298;2023-03-01T09:50:22;95814.91;;;9.37;79.58
7182;BME280;3632;42.724;23.298;2023-03-01T09:52:57;95809.31;;;9.32;80.35
7182;BME280;3632;42.724;23.298;2023-03-01T09:55:31;95822.25;;;9.42;78.14
7182;BME280;3632;42.724;23.298;2023-03-01T09:58:02;95812.09;;;9.54;78.22
7182;BME280;3632;42.724;23.298;2023-03-01T10:00:37;95811.16;;;9.81;78.66
7182;BME280;3632;42.724;23.298;2023-03-01T10:03:13;95579.38;;;8.46;77.58
7182;BME280;3632;42.724;23.298;2023-03-01T10:05:56;95802.09;;;10.02;77.49
7182;BME280;3632;42.724;23.298;2023-03-01T10:08:31;95687.41;;;9.16;77.69
7182;BME280;3632;42.724;23.298;2023-03-01T10:11:02;95823.59;;;10.23;76.27
7182;BME280;3632;42.724;23.298;2023-03-01T10:13:35;95494.25;;;8.41;75.78
7182;BME280;3632;42.724;23.298;2023-03-01T10:16:11;95778.50;;;9.87;74.80
7182;BME280;3632;42.724;23.298;2023-03-01T10:18:39;95727.91;;;9.57;75.07
7182;BME280;3632;42.724;23.298;2023-03-01T10:21:13;95795.16;;;10.04;75.03
7182;BME280;3632;42.724;23.298;2023-03-01T10:23:42;95425.41;;;7.28;74.73
7182;BME280;3632;42.724;23.298;2023-03-01T10:26:25;95780.28;;;10.10;73.92
7182;BME280;3632;42.724;23.298;2023-03-01T10:29:01;95778.88;;;10.19;74.66
7182;BME280;3632;42.724;23.298;2023-03-01T10:31:37;95728.38;;;10.00;72.91
7182;BME280;3632;42.724;23.298;2023-03-01T10:36:38;95570.31;;;9.31;72.12
7182;BME280;3632;42.724;23.298;2023-03-01T10:39:16;95778.97;;;10.54;71.86
7182;BME280;3632;42.724;23.298;2023-03-01T10:41:56;95782.13;;;10.58;70.37
7182;BME280;3632;42.724;23.298;2023-03-01T10:44:36;95625.25;;;9.82;71.01
7182;BME280;3632;42.724;23.298;2023-03-01T10:47:03;95830.97;;;10.88;70.04
7182;BME280;3632;42.724;23.298;2023-03-01T10:49:31;95775.69;;;10.88;71.20
7182;BME280;3632;42.724;23.298;2023-03-01T10:52:11;95790.91;;;11.01;70.15
7182;BME280;3632;42.724;23.298;2023-03-01T10:54:52;95688.69;;;9.73;69.89
7182;BME280;3632;42.724;23.298;2023-03-01T10:57:36;95768.06;;;10.99;70.65
7182;BME280;3632;42.724;23.298;2023-03-01T11:00:30;95622.50;;;10.09;70.55
7182;BME280;3632;42.724;23.298;2023-03-01T11:03:10;95702.78;;;10.86;70.26
7182;BME280;3632;42.724;23.298;2023-03-01T11:05:51;95589.38;;;9.85;70.41
7182;BME280;3632;42.724;23.298;2023-03-01T11:08:33;95773.53;;;11.06;73.17
7182;BME280;3632;42.724;23.298;2023-03-01T11:11:14;95771.22;;;11.03;72.86
7182;BME280;3632;42.724;23.298;2023-03-01T11:13:55;95809.47;;;11.03;73.00
7182;BME280;3632;42.724;23.298;2023-03-01T11:16:25;95691.03;;;10.83;71.85
7182;BME280;3632;42.724;23.298;2023-03-01T11:18:57;95764.59;;;11.46;71.38
7182;BME280;3632;42.724;23.298;2023-03-01T11:21:26;95706.50;;;10.93;71.81
7182;BME280;3632;42.724;23.298;2023-03-01T11:23:54;95754.34;;;11.24;72.49
7182;BME280;3632;42.724;23.298;2023-03-01T11:26:24;95763.53;;;11.38;70.99
7182;BME280;3632;42.724;23.298;2023-03-01T11:28:55;95711.34;;;10.96;72.43
7182;BME280;3632;42.724;23.298;2023-03-01T11:31:24;95746.88;;;11.56;70.87
7182;BME280;3632;42.724;23.298;2023-03-01T11:33:55;95751.53;;;11.62;71.13
7182;BME280;3632;42.724;23.298;2023-03-01T11:36:29;95545.59;;;9.80;70.70
7182;BME280;3632;42.724;23.298;2023-03-01T11:39:02;95503.44;;;9.41;70.53
7182;BME280;3632;42.724;23.298;2023-03-01T11:41:33;95626.22;;;10.64;71.09
7182;BME280;3632;42.724;23.298;2023-03-01T11:44:02;95342.22;;;7.73;73.78
7182;BME280;3632;42.724;23.298;2023-03-01T11:47:03;95736.13;;;11.18;72.75
7182;BME280;3632;42.724;23.298;2023-03-01T11:49:55;95733.63;;;11.40;72.56
7182;BME280;3632;42.724;23.298;2023-03-01T11:52:35;95731.84;;;11.29;72.28
7182;BME280;3632;42.724;23.298;2023-03-01T11:55:28;95715.19;;;11.36;73.57
7182;BME280;3632;42.724;23.298;2023-03-01T11:58:11;95672.00;;;11.22;71.87
7182;BME280;3632;42.724;23.298;2023-03-01T12:00:56;95569.84;;;10.44;70.92
7182;BME280;3632;42.724;23.298;2023-03-01T12:03:30;95718.50;;;11.26;71.75
7182;BME280;3632;42.724;23.298;2023-03-01T12:06:21;95713.31;;;11.38;71.96
7182;BME280;3632;42.724;23.298;2023-03-01T12:09:00;95724.13;;;11.53;71.40
7182;BME280;3632;42.724;23.298;2023-03-01T12:11:40;95701.38;;;11.39;70.20
7182;BME280;3632;42.724;23.298;2023-03-01T12:14:36;95689.25;;;11.08;70.68
7182;BME280;3632;42.724;23.298;2023-03-01T12:20:14;95549.44;;;10.33;71.11
7182;BME280;3632;42.724;23.298;2023-03-01T12:22:53;95706.69;;;11.36;70.87
7182;BME280;3632;42.724;23.298;2023-03-01T12:25:25;95632.06;;;10.99;69.96
7182;BME280;3632;42.724;23.298;2023-03-01T12:31:22;95699.50;;;11.30;70.14
7182;BME280;3632;42.724;23.298;2023-03-01T12:34:01;95109.50;;;7.51;69.97
7182;BME280;3632;42.724;23.298;2023-03-01T12:36:54;95692.16;;;11.03;69.54
7182;BME280;3632;42.724;23.298;2023-03-01T12:39:37;95694.81;;;11.13;71.49
7182;BME280;3632;42.724;23.298;2023-03-01T12:42:10;95691.28;;;10.91;72.23
7182;BME280;3632;42.724;23.298;2023-03-01T12:44:57;95643.94;;;10.65;72.24
7182;BME280;3632;42.724;23.298;2023-03-01T12:47:44;95631.81;;;10.80;70.35
7182;BME280;3632;42.724;23.298;2023-03-01T12:50:18;95632.81;;;10.66;70.60
7182;BME280;3632;42.724;23.298;2023-03-01T12:52:49;95694.53;;;11.28;71.79
7182;BME280;3632;42.724;23.298;2023-03-01T12:55:27;95756.63;;;11.16;70.83
7182;BME280;3632;42.724;23.298;2023-03-01T12:58:04;95589.38;;;10.68;70.13
7182;BME280;3632;42.724;23.298;2023-03-01T13:00:36;95149.41;;;7.73;69.93
7182;BME280;3632;42.724;23.298;2023-03-01T13:03:13;95684.09;;;11.76;68.30
7182;BME280;3632;42.724;23.298;2023-03-01T13:05:57;95803.75;;;11.69;68.32
7182;BME280;3632;42.724;23.298;2023-03-01T13:08:31;95691.28;;;11.60;70.83
7182;BME280;3632;42.724;23.298;2023-03-01T13:11:05;95639.66;;;11.23;68.98
7182;BME280;3632;42.724;23.298;2023-03-01T13:13:32;95627.22;;;11.07;69.63
7182;BME280;3632;42.724;23.298;2023-03-01T13:16:21;95754.03;;;11.40;69.21
7182;BME280;3632;42.724;23.298;2023-03-01T13:19:06;95260.78;;;8.50;71.04
7182;BME280;3632;42.724;23.298;2023-03-01T13:21:33;95690.78;;;11.21;72.06
7182;BME280;3632;42.724;23.298;2023-03-01T13:24:00;95689.63;;;11.14;71.33
7182;BME280;3632;42.724;23.298;2023-03-01T13:26:27;95354.06;;;7.85;71.63
7182;BME280;3632;42.724;23.298;2023-03-01T13:32:22;95733.22;;;11.11;72.72
7182;BME280;3632;42.724;23.298;2023-03-01T13:34:56;95692.41;;;11.11;72.72
7182;BME280;3632;42.724;23.298;2023-03-01T13:37:27;95620.63;;;10.59;72.53
7182;BME280;3632;42.724;23.298;2023-03-01T13:40:01;95694.94;;;11.11;73.12
7182;BME280;3632;42.724;23.298;2023-03-01T13:42:39;95400.19;;;9.15;72.47
7182;BME280;3632;42.724;23.298;2023-03-01T13:45:19;95688.72;;;10.80;73.83
7182;BME280;3632;42.724;23.298;2023-03-01T13:47:49;95680.13;;;10.46;75.27
7182;BME280;3632;42.724;23.298;2023-03-01T13:50:21;95691.63;;;10.28;75.60
7182;BME280;3632;42.724;23.298;2023-03-01T13:52:53;95693.75;;;10.34;76.17
7182;BME280;3632;42.724;23.298;2023-03-01T13:55:26;95682.25;;;10.29;77.02
7182;BME280;3632;42.724;23.298;2023-03-01T13:57:55;95712.38;;;9.98;78.08
7182;BME280;3632;42.724;23.298;2023-03-01T14:00:28;95684.50;;;10.44;76.65
7182;BME280;3632;42.724;23.298;2023-03-01T14:03:13;95682.91;;;10.43;76.22
7182;BME280;3632;42.724;23.298;2023-03-01T14:05:44;95687.25;;;10.30;76.87
7182;BME280;3632;42.724;23.298;2023-03-01T14:08:24;95473.69;;;8.94;77.59
7182;BME280;3632;42.724;23.298;2023-03-01T14:11:04;95682.34;;;10.51;77.14
7182;BME280;3632;42.724;23.298;2023-03-01T14:13:48;95630.44;;;10.17;76.52
7182;BME280;3632;42.724;23.298;2023-03-01T14:16:30;95647.41;;;10.29;75.96
7182;BME280;3632;42.724;23.298;2023-03-01T14:19:15;95371.53;;;8.53;75.77
7182;BME280;3632;42.724;23.298;2023-03-01T14:21:46;95680.03;;;10.83;75.78
7182;BME280;3632;42.724;23.298;2023-03-01T14:24:23;95579.69;;;10.14;75.38
7182;BME280;3632;42.724;23.298;2023-03-01T14:26:50;95677.03;;;10.89;75.46
7182;BME280;3632;42.724;23.298;2023-03-01T14:29:32;95734.50;;;10.82;75.82
7182;BME280;3632;42.724;23.298;2023-03-01T14:32:09;95645.91;;;10.27;77.34